Portada
METAR-TAF:

METAR-TAF

Aeroports :

Bizerta, Tunísia

latitud: 37-15N, longitud: 009-48E, altitud: 5 m

Observació

L'informe es va fer fa 10 minuts, a les 03:00 UTC
Vent calma
Temperatura 4°C
Humitat 93%
Pressió 1023 hPa
Visibilitat: 8000 m
Escasses núvols a una alçada de 2000 ft

METAR: DTTB 250300Z 00000KT 8000 FEW020 04/03 Q1023

Hora: 04:10 (03:10 UTC)

Pronòstic

L'informe es va fer fa 3 hores i 10 minuts, a les 00:00 UTC
Pronòstic vàlid del 25 a les 01 UTC al 25 a les 07 UTC
Vent 2 kt del Nord-Oest
Visibilitat: 8000 m
Escasses núvols a una alçada de 2000 ft
Probabilitat 40% :
Temporalment
l' 25 a les 05 UTC al 25 a les 08 UTC
Visibilitat: 3000 m
boirina

TAF: DTTB 250000Z 2501/2507 31002KT 8000 FEW020 PROB40 TEMPO 2505/2508 3000 BR

Observacions i pronòstics meteorològics de més de 4000 aeroports (METAR i TAF).

Les estacions disponibles són els punts grocs i vermells al mapa.

Posi el ratolí al punt desitjat per veure el nom de l'estació.

Feu clic per veure les observacions i els pronòstics meteorològics.

Per canviar el mapa: feu clic els botons verds amb una creu de color negre per apropar; al botó verd amb un guió per allunyar la imatge; o en les fletxes verdes per a mapes adjacents.


METAR-TAF: